Weather at Zilkaats Airstrip

Public forecast

Using degrees Celsius for public forecast. Weather courtesy of forecast.io.

Closest aviation weather report (METAR) to Zilkaats Airstrip

Closest report is Lanseria Airport, 17.0 nm (31.4 km) S. Retrieved 2021/06/24 18:00 UTC (34 minutes ago):

FALA 241800Z 22004KT CAVOK 15/01 Q1025 NOSIG

Closest aviation forecast (TAF) to Zilkaats Airstrip

Closest forecast is Lanseria Airport, 17.0 nm (31.4 km) S. Retrieved 2021/06/24 18:00 UTC (34 minutes ago):

TAF FALA 241600Z 2418/2518 VRB03KT CAVOK TX21/2512Z TN06/2505Z BECMG 2509/2511 30010KT